createdAt,value
2019-02-18T00:01:52.606Z,72.70
2019-02-18T00:04:22.928Z,72.83
2019-02-18T00:06:53.213Z,73.16
2019-02-18T00:09:23.440Z,73.32
2019-02-18T00:11:53.629Z,73.20
2019-02-18T00:14:23.861Z,73.54
2019-02-18T00:16:54.167Z,73.33
2019-02-18T00:19:24.462Z,73.62
2019-02-18T00:21:54.862Z,73.35
2019-02-18T00:24:25.134Z,73.18
2019-02-18T00:26:56.283Z,73.39
2019-02-18T00:29:26.500Z,73.16
2019-02-18T00:31:56.819Z,73.36
2019-02-18T00:34:27.136Z,73.68
2019-02-18T00:36:57.350Z,73.87
2019-02-18T00:39:27.565Z,74.00
2019-02-18T00:41:57.908Z,73.73
2019-02-18T00:44:28.146Z,73.70
2019-02-18T00:46:58.400Z,73.37
2019-02-18T00:49:28.636Z,73.18
2019-02-18T00:51:58.896Z,73.24
2019-02-18T00:54:29.160Z,73.50
2019-02-18T00:56:59.431Z,73.24
2019-02-18T00:59:29.613Z,73.69
2019-02-18T01:02:00.230Z,73.65
2019-02-18T01:04:30.470Z,73.83
2019-02-18T01:07:00.715Z,73.87
2019-02-18T01:09:30.986Z,73.76
2019-02-18T01:12:01.177Z,73.76
2019-02-18T01:14:31.378Z,73.92
2019-02-18T01:17:01.813Z,74.09
2019-02-18T01:19:32.162Z,74.10
2019-02-18T01:22:02.389Z,74.40
2019-02-18T01:24:32.638Z,74.43
2019-02-18T01:27:02.828Z,74.45
2019-02-18T01:29:33.147Z,74.22
2019-02-18T01:32:03.340Z,74.04
2019-02-18T01:34:33.627Z,74.19
2019-02-18T01:37:03.965Z,74.44
2019-02-18T01:39:34.207Z,74.48
2019-02-18T01:42:04.429Z,74.78
2019-02-18T01:44:34.655Z,74.48
2019-02-18T01:47:04.908Z,74.33
2019-02-18T01:49:35.150Z,74.48
2019-02-18T01:52:05.452Z,74.59
2019-02-18T01:54:35.659Z,74.30
2019-02-18T01:57:06.065Z,74.41
2019-02-18T01:59:36.267Z,74.92
2019-02-18T02:02:06.814Z,74.80
2019-02-18T02:04:37.106Z,74.90
2019-02-18T02:07:07.310Z,75.49
2019-02-18T02:09:37.498Z,75.11
2019-02-18T02:12:07.739Z,75.49
2019-02-18T02:14:38.095Z,75.04
2019-02-18T02:17:08.318Z,75.03
2019-02-18T02:19:38.519Z,74.87
2019-02-18T02:22:08.710Z,75.27
2019-02-18T02:24:39.012Z,75.44
2019-02-18T02:27:09.230Z,75.66
2019-02-18T02:29:39.478Z,75.74
2019-02-18T02:32:09.681Z,75.40
2019-02-18T02:34:40.015Z,75.86
2019-02-18T02:37:10.263Z,75.99
2019-02-18T02:39:40.489Z,75.73
2019-02-18T02:42:10.716Z,75.96
2019-02-18T02:44:40.921Z,75.89
2019-02-18T02:47:11.227Z,76.52
2019-02-18T02:49:41.446Z,76.55
2019-02-18T02:52:11.838Z,76.73
2019-02-18T02:54:42.100Z,76.82
2019-02-18T02:57:12.303Z,77.20
2019-02-18T02:59:42.571Z,77.00
2019-02-18T03:02:12.978Z,77.02
2019-02-18T03:04:43.286Z,76.92
2019-02-18T03:07:13.477Z,76.93
2019-02-18T03:09:43.755Z,77.07
2019-02-18T03:12:14.014Z,77.06
2019-02-18T03:14:44.208Z,77.22
2019-02-18T03:17:14.489Z,77.09
2019-02-18T03:19:44.741Z,77.17
2019-02-18T03:22:15.010Z,77.02
2019-02-18T03:25:22.122Z,76.89
2019-02-18T03:28:12.799Z,77.25
2019-02-18T03:31:09.340Z,77.16
2019-02-18T03:33:49.126Z,77.09
2019-02-18T03:36:19.413Z,77.25
2019-02-18T03:38:49.594Z,77.13
2019-02-18T03:41:19.819Z,77.30
2019-02-18T03:43:50.051Z,77.23
2019-02-18T03:46:20.232Z,77.39
2019-02-18T03:48:50.453Z,77.49
2019-02-18T03:51:20.693Z,77.27
2019-02-18T03:53:51.005Z,77.23
2019-02-18T03:56:21.207Z,77.28
2019-02-18T03:58:51.409Z,77.10
2019-02-18T04:01:21.660Z,77.43
2019-02-18T04:03:52.315Z,77.31
2019-02-18T04:06:22.717Z,77.39
2019-02-18T04:08:52.903Z,77.38
2019-02-18T04:11:23.142Z,77.53
2019-02-18T04:13:53.410Z,77.14
2019-02-18T04:16:23.588Z,77.21
2019-02-18T04:18:53.805Z,77.20
2019-02-18T04:21:24.025Z,77.31
2019-02-18T04:23:54.299Z,76.83
2019-02-18T04:26:24.681Z,77.07
2019-02-18T04:28:54.874Z,77.11
2019-02-18T04:31:25.093Z,77.12
2019-02-18T04:33:55.765Z,77.43
2019-02-18T04:36:26.141Z,77.29
2019-02-18T04:38:56.364Z,77.52
2019-02-18T04:41:26.621Z,77.72
2019-02-18T04:43:56.855Z,77.72
2019-02-18T04:46:27.181Z,77.37
2019-02-18T04:48:57.404Z,77.66
2019-02-18T04:51:27.624Z,77.30
2019-02-18T04:53:57.828Z,77.53
2019-02-18T04:56:28.020Z,77.48
2019-02-18T04:58:59.377Z,77.51
2019-02-18T05:01:29.674Z,77.86
2019-02-18T05:04:00.147Z,77.80
2019-02-18T05:06:30.455Z,77.94
2019-02-18T05:09:05.207Z,77.92
2019-02-18T05:11:32.938Z,77.69
2019-02-18T05:14:03.208Z,77.61
2019-02-18T05:16:33.368Z,77.97
2019-02-18T05:19:03.830Z,78.08
2019-02-18T05:21:34.074Z,77.86
2019-02-18T05:24:04.393Z,78.01
2019-02-18T05:26:34.712Z,77.98
2019-02-18T05:29:04.945Z,78.41
2019-02-18T05:31:35.228Z,78.04
2019-02-18T05:34:05.417Z,78.01
2019-02-18T05:36:35.791Z,78.04
2019-02-18T05:39:17.408Z,77.94
2019-02-18T05:41:39.786Z,78.24
2019-02-18T05:44:10.016Z,78.33
2019-02-18T05:46:40.277Z,78.29
2019-02-18T05:49:10.487Z,78.15
2019-02-18T05:51:40.763Z,78.09
2019-02-18T05:54:11.059Z,78.47
2019-02-18T05:56:41.535Z,78.35
2019-02-18T05:59:11.748Z,78.57
2019-02-18T06:01:42.065Z,78.75
2019-02-18T06:04:12.464Z,78.86
2019-02-18T06:06:42.686Z,78.95
2019-02-18T06:09:12.917Z,78.70
2019-02-18T06:11:43.175Z,78.73
2019-02-18T06:14:13.485Z,78.78
2019-02-18T06:16:44.037Z,78.66
2019-02-18T06:19:14.306Z,78.60
2019-02-18T06:21:44.568Z,78.58
2019-02-18T06:24:14.800Z,78.70
2019-02-18T06:26:49.622Z,78.58
2019-02-18T06:29:23.025Z,78.24
2019-02-18T06:31:55.300Z,78.43
2019-02-18T06:34:28.800Z,74.55
2019-02-18T06:36:59.243Z,77.17
2019-02-18T06:39:40.886Z,77.88
2019-02-18T06:42:02.902Z,77.44
2019-02-18T06:44:39.740Z,77.70
2019-02-18T06:47:14.360Z,78.06
2019-02-18T06:49:47.323Z,77.44
2019-02-18T06:52:17.851Z,77.37
2019-02-18T06:54:49.320Z,77.17
2019-02-18T06:57:26.979Z,76.96
2019-02-18T07:00:12.348Z,77.00
2019-02-18T07:03:19.235Z,76.65
2019-02-18T07:06:17.232Z,76.90
2019-02-18T07:09:04.488Z,76.60
2019-02-18T07:11:55.624Z,76.82
2019-02-18T07:14:26.065Z,76.27
2019-02-18T07:16:57.556Z,76.43
2019-02-18T07:19:28.037Z,76.00
2019-02-18T07:21:58.302Z,75.85
2019-02-18T07:24:28.555Z,75.53
2019-02-18T07:27:02.066Z,75.22
2019-02-18T07:29:34.144Z,74.99
2019-02-18T07:32:07.973Z,74.78
2019-02-18T07:34:38.459Z,74.40
2019-02-18T07:37:08.757Z,74.20
2019-02-18T07:39:39.133Z,73.98
2019-02-18T07:42:09.357Z,73.41
2019-02-18T07:44:39.576Z,73.25
2019-02-18T07:47:11.893Z,72.94
2019-02-18T07:49:44.429Z,72.83
2019-02-18T07:52:15.176Z,72.70
2019-02-18T07:54:48.206Z,72.41
2019-02-18T07:57:18.628Z,72.10
2019-02-18T07:59:51.491Z,71.55
2019-02-18T08:02:21.894Z,71.21
2019-02-18T08:04:52.155Z,70.89
2019-02-18T08:07:22.685Z,70.55
2019-02-18T08:09:52.986Z,70.30
2019-02-18T08:12:23.303Z,69.48
2019-02-18T08:14:53.477Z,69.33
2019-02-18T08:17:23.780Z,68.87
2019-02-18T08:19:54.050Z,65.90
2019-02-18T08:22:24.261Z,66.87
2019-02-18T08:24:54.510Z,67.21
2019-02-18T08:27:24.910Z,62.68
2019-02-18T08:29:56.092Z,64.93
2019-02-18T08:32:26.460Z,63.73
2019-02-18T08:34:56.830Z,57.09
2019-02-18T08:37:27.391Z,55.89
2019-02-18T08:39:57.968Z,54.48
2019-02-18T08:42:28.850Z,53.08
2019-02-18T08:44:59.085Z,52.08
2019-02-18T08:47:29.734Z,50.99
2019-02-18T08:49:59.936Z,48.80
2019-02-18T08:52:30.204Z,48.60
2019-02-18T08:55:00.484Z,47.73
2019-02-18T08:57:30.703Z,49.54
2019-02-18T09:00:00.988Z,48.43
2019-02-18T09:02:32.327Z,46.04
2019-02-18T09:05:02.775Z,46.60
2019-02-18T09:07:33.413Z,46.86
2019-02-18T09:10:03.723Z,45.47
2019-02-18T09:12:34.043Z,44.24
2019-02-18T09:15:04.716Z,44.94
2019-02-18T09:17:35.267Z,44.65
2019-02-18T09:20:06.172Z,44.81
2019-02-18T09:22:58.394Z,43.05
2019-02-18T09:25:36.739Z,43.94
2019-02-18T09:28:07.020Z,41.90
2019-02-18T09:30:39.336Z,45.23
2019-02-18T09:33:09.962Z,45.26
2019-02-18T09:35:40.280Z,42.24
2019-02-18T09:38:10.572Z,43.31
2019-02-18T09:40:50.722Z,44.15
2019-02-18T09:43:22.270Z,43.30
2019-02-18T09:45:52.494Z,44.66
2019-02-18T09:48:22.792Z,42.79
2019-02-18T09:50:53.497Z,41.92
2019-02-18T09:53:23.717Z,42.99
2019-02-18T09:55:55.797Z,43.76
2019-02-18T09:58:26.038Z,43.31
2019-02-18T10:00:56.306Z,43.66
2019-02-18T10:03:31.914Z,41.27
2019-02-18T10:05:58.534Z,41.86
2019-02-18T10:08:29.060Z,41.73
2019-02-18T10:10:59.715Z,41.77
2019-02-18T10:13:29.981Z,42.47
2019-02-18T10:16:00.248Z,43.09
2019-02-18T10:18:32.181Z,41.53
2019-02-18T10:21:06.496Z,40.13
2019-02-18T10:23:42.690Z,37.20
2019-02-18T10:26:22.081Z,38.18
2019-02-18T10:28:57.992Z,36.58
2019-02-18T10:31:31.437Z,36.98
2019-02-18T10:34:05.950Z,36.60
2019-02-18T10:36:38.861Z,36.60
2019-02-18T10:39:10.985Z,36.89
2019-02-18T10:41:45.350Z,38.01
2019-02-18T10:44:19.803Z,37.48
2019-02-18T10:46:55.421Z,37.74
2019-02-18T10:49:31.662Z,37.80
2019-02-18T10:52:07.301Z,37.48
2019-02-18T10:54:42.644Z,36.94
2019-02-18T10:57:20.545Z,37.79
2019-02-18T10:59:59.200Z,38.07
2019-02-18T11:02:35.548Z,37.38
2019-02-18T11:05:10.730Z,36.46
2019-02-18T11:07:47.125Z,37.63
2019-02-18T11:10:25.366Z,35.43
2019-02-18T11:13:02.852Z,37.18
2019-02-18T11:15:40.462Z,35.30
2019-02-18T11:18:15.867Z,36.44
2019-02-18T11:20:51.262Z,36.60
2019-02-18T11:23:25.731Z,35.65
2019-02-18T11:25:59.094Z,36.14
2019-02-18T11:28:44.165Z,34.24
2019-02-18T11:31:17.608Z,35.75
2019-02-18T11:33:55.696Z,36.65
2019-02-18T11:36:33.612Z,35.07
2019-02-18T11:39:13.804Z,34.90
2019-02-18T11:41:54.896Z,36.27
2019-02-18T11:44:31.811Z,37.07
2019-02-18T11:47:05.823Z,35.12
2019-02-18T11:49:40.589Z,34.72
2019-02-18T11:52:14.184Z,33.80
2019-02-18T11:54:48.921Z,34.66
2019-02-18T11:57:21.121Z,33.50
2019-02-18T11:59:53.230Z,34.24
2019-02-18T12:02:25.314Z,33.21
2019-02-18T12:04:57.985Z,34.58
2019-02-18T12:07:38.775Z,34.18
2019-02-18T12:10:21.874Z,34.88
2019-02-18T12:13:44.987Z,34.92
2019-02-18T12:16:26.881Z,35.09
2019-02-18T12:19:10.393Z,35.06
2019-02-18T12:21:50.621Z,35.73
2019-02-18T12:24:31.997Z,35.82
2019-02-18T12:27:25.527Z,35.69
2019-02-18T12:30:14.324Z,35.33
2019-02-18T12:32:55.140Z,36.26
2019-02-18T12:35:37.069Z,35.97
2019-02-18T12:38:35.838Z,35.75
2019-02-18T12:41:19.570Z,36.22
2019-02-18T12:44:08.135Z,36.52
2019-02-18T12:46:43.557Z,35.83
2019-02-18T12:49:15.531Z,36.62
2019-02-18T12:51:48.138Z,36.72
2019-02-18T12:54:26.926Z,36.30
2019-02-18T12:56:59.140Z,35.26
2019-02-18T12:59:35.742Z,36.15
2019-02-18T13:02:22.271Z,36.33
2019-02-18T13:05:14.953Z,37.99
2019-02-18T13:07:47.799Z,36.92
2019-02-18T13:10:23.713Z,37.63
2019-02-18T13:13:02.983Z,37.59
2019-02-18T13:15:40.652Z,37.09
2019-02-18T13:18:18.681Z,38.32
2019-02-18T13:20:56.104Z,37.32
2019-02-18T13:23:30.886Z,37.39
2019-02-18T13:26:06.882Z,37.84
2019-02-18T13:28:43.362Z,37.98
2019-02-18T13:31:22.026Z,37.85
2019-02-18T13:33:59.664Z,38.77
2019-02-18T13:36:37.152Z,38.86
2019-02-18T13:39:13.849Z,39.80
2019-02-18T13:41:47.483Z,38.81
2019-02-18T13:44:24.639Z,39.17
2019-02-18T13:47:01.414Z,38.89
2019-02-18T13:49:42.041Z,39.41
2019-02-18T13:52:20.346Z,40.03
2019-02-18T13:54:58.699Z,40.14
2019-02-18T13:57:32.490Z,40.06
2019-02-18T14:00:32.903Z,38.60
2019-02-18T14:03:14.201Z,38.10
2019-02-18T14:06:16.393Z,39.40
2019-02-18T14:08:59.284Z,38.98
2019-02-18T14:11:52.221Z,38.90
2019-02-18T14:14:34.073Z,39.88
2019-02-18T14:17:18.551Z,38.95
2019-02-18T14:19:54.244Z,39.27
2019-02-18T14:22:25.594Z,39.37
2019-02-18T14:24:56.372Z,39.81
2019-02-18T14:27:26.824Z,39.33
2019-02-18T14:29:57.250Z,39.55
2019-02-18T14:32:28.209Z,39.50
2019-02-18T14:34:59.431Z,40.54
2019-02-18T14:37:30.181Z,40.27
2019-02-18T14:40:01.114Z,40.65
2019-02-18T14:42:39.194Z,40.75
2019-02-18T14:45:17.041Z,41.22
2019-02-18T14:47:55.622Z,41.17
2019-02-18T14:50:29.013Z,40.94
2019-02-18T14:53:00.443Z,41.45
2019-02-18T14:55:31.132Z,41.80
2019-02-18T14:58:09.870Z,42.24
2019-02-18T15:00:42.119Z,42.27
2019-02-18T15:03:12.486Z,42.53
2019-02-18T15:05:43.057Z,42.47
2019-02-18T15:08:13.471Z,42.60
2019-02-18T15:10:43.761Z,42.66
2019-02-18T15:13:14.089Z,42.41
2019-02-18T15:15:46.327Z,42.56
2019-02-18T15:18:20.548Z,43.24
2019-02-18T15:20:54.674Z,43.18
2019-02-18T15:23:29.451Z,43.54
2019-02-18T15:26:04.509Z,43.54
2019-02-18T15:28:39.143Z,43.96
2019-02-18T15:31:15.214Z,43.69
2019-02-18T15:33:53.180Z,44.01
2019-02-18T15:36:28.437Z,44.14
2019-02-18T15:39:05.970Z,44.66
2019-02-18T15:41:42.161Z,44.89
2019-02-18T15:44:12.955Z,45.16
2019-02-18T15:46:47.901Z,45.20
2019-02-18T15:49:22.915Z,45.54
2019-02-18T15:52:00.325Z,45.75
2019-02-18T15:54:38.028Z,46.13
2019-02-18T15:57:14.006Z,46.28
2019-02-18T15:59:49.805Z,46.52
2019-02-18T16:02:27.087Z,46.80
2019-02-18T16:05:06.716Z,46.83
2019-02-18T16:07:42.310Z,47.33
2019-02-18T16:10:20.203Z,47.57
2019-02-18T16:12:56.860Z,47.92
2019-02-18T16:15:33.508Z,48.09
2019-02-18T16:18:10.171Z,48.26
2019-02-18T16:20:42.426Z,48.23
2019-02-18T16:23:13.541Z,48.03
2019-02-18T16:25:44.122Z,48.20
2019-02-18T16:28:14.347Z,48.28
2019-02-18T16:30:44.573Z,48.71
2019-02-18T16:33:16.485Z,48.52
2019-02-18T16:35:46.948Z,48.61
2019-02-18T16:38:17.200Z,49.21
2019-02-18T16:40:47.440Z,49.40
2019-02-18T16:43:17.669Z,49.25
2019-02-18T16:45:48.028Z,49.73
2019-02-18T16:48:18.669Z,50.01
2019-02-18T16:50:48.891Z,50.02
2019-02-18T16:53:19.495Z,50.44
2019-02-18T16:55:49.717Z,50.49
2019-02-18T16:58:20.055Z,50.38
2019-02-18T17:00:57.278Z,50.55
2019-02-18T17:03:22.634Z,50.54
2019-02-18T17:05:53.126Z,50.96
2019-02-18T17:08:23.507Z,51.20
2019-02-18T17:10:53.716Z,51.23
2019-02-18T17:13:23.986Z,51.53
2019-02-18T17:15:54.242Z,51.62
2019-02-18T17:18:25.028Z,51.61
2019-02-18T17:20:55.929Z,51.82
2019-02-18T17:23:26.196Z,51.70
2019-02-18T17:25:56.452Z,51.78
2019-02-18T17:28:26.998Z,51.89
2019-02-18T17:30:57.237Z,52.14
2019-02-18T17:33:27.472Z,52.13
2019-02-18T17:35:57.749Z,52.35
2019-02-18T17:38:28.028Z,52.40
2019-02-18T17:40:58.303Z,52.56
2019-02-18T17:43:28.596Z,52.49
2019-02-18T17:45:58.919Z,52.55
2019-02-18T17:48:29.568Z,52.86
2019-02-18T17:51:01.954Z,52.47
2019-02-18T17:53:32.378Z,52.86
2019-02-18T17:56:03.721Z,52.97
2019-02-18T17:58:34.036Z,52.75
2019-02-18T18:01:04.836Z,53.11
2019-02-18T18:03:35.130Z,52.91
2019-02-18T18:06:05.499Z,53.15
2019-02-18T18:08:35.772Z,53.29
2019-02-18T18:11:06.078Z,53.20
2019-02-18T18:13:36.354Z,53.56
2019-02-18T18:16:07.026Z,53.76
2019-02-18T18:18:37.623Z,53.72
2019-02-18T18:21:07.937Z,54.22
2019-02-18T18:23:38.592Z,54.53
2019-02-18T18:26:08.892Z,54.05
2019-02-18T18:28:39.175Z,54.43
2019-02-18T18:31:10.693Z,54.46
2019-02-18T18:33:41.587Z,54.81
2019-02-18T18:36:12.062Z,54.94
2019-02-18T18:38:42.464Z,55.01
2019-02-18T18:41:12.763Z,55.11
2019-02-18T18:43:43.127Z,55.25
2019-02-18T18:46:13.431Z,55.50
2019-02-18T18:48:46.002Z,55.52
2019-02-18T18:51:16.313Z,56.03
2019-02-18T18:53:47.913Z,56.40
2019-02-18T18:56:18.230Z,56.63
2019-02-18T18:58:48.620Z,56.86
2019-02-18T19:01:18.914Z,57.08
2019-02-18T19:03:49.282Z,57.29
2019-02-18T19:06:19.532Z,57.32
2019-02-18T19:08:49.959Z,57.47
2019-02-18T19:11:20.494Z,57.58
2019-02-18T19:13:50.766Z,57.59
2019-02-18T19:16:21.101Z,57.84
2019-02-18T19:18:51.641Z,58.14
2019-02-18T19:21:22.264Z,58.37
2019-02-18T19:23:52.487Z,58.37
2019-02-18T19:26:22.798Z,58.22
2019-02-18T19:28:53.176Z,58.30
2019-02-18T19:31:23.426Z,58.34
2019-02-18T19:33:53.695Z,58.33
2019-02-18T19:36:23.929Z,58.46
2019-02-18T19:38:54.299Z,58.33
2019-02-18T19:41:24.640Z,58.49
2019-02-18T19:43:55.036Z,58.59
2019-02-18T19:46:25.294Z,59.01
2019-02-18T19:48:55.568Z,59.17
2019-02-18T19:51:25.775Z,59.37
2019-02-18T19:54:05.115Z,59.56
2019-02-18T19:56:36.965Z,59.81
2019-02-18T19:59:10.498Z,59.50
2019-02-18T20:01:45.324Z,59.29
2019-02-18T20:04:33.009Z,59.65
2019-02-18T20:07:04.242Z,59.80
2019-02-18T20:09:36.531Z,60.01
2019-02-18T20:12:06.841Z,60.68
2019-02-18T20:14:40.111Z,60.42
2019-02-18T20:17:10.472Z,60.44
2019-02-18T20:19:40.864Z,60.98
2019-02-18T20:22:11.148Z,60.49
2019-02-18T20:24:46.426Z,60.77
2019-02-18T20:27:16.718Z,60.70
2019-02-18T20:29:58.308Z,60.29
2019-02-18T20:32:31.070Z,60.50
2019-02-18T20:35:01.445Z,60.10
2019-02-18T20:37:31.687Z,59.72
2019-02-18T20:40:02.067Z,59.83
2019-02-18T20:42:32.532Z,59.84
2019-02-18T20:45:02.950Z,60.35
2019-02-18T20:47:33.211Z,59.95
2019-02-18T20:50:03.515Z,61.87
2019-02-18T20:52:33.861Z,60.50
2019-02-18T20:55:04.158Z,60.64
2019-02-18T20:57:34.777Z,60.51
2019-02-18T21:00:07.147Z,61.95
2019-02-18T21:02:37.459Z,60.44
2019-02-18T21:05:08.173Z,62.73
2019-02-18T21:07:38.444Z,61.44
2019-02-18T21:10:09.696Z,64.28
2019-02-18T21:12:40.035Z,63.51
2019-02-18T21:15:10.398Z,62.46
2019-02-18T21:17:40.752Z,62.06
2019-02-18T21:20:14.847Z,61.78
2019-02-18T21:22:45.127Z,61.98
2019-02-18T21:25:15.439Z,61.87
2019-02-18T21:27:45.824Z,61.08
2019-02-18T21:30:17.335Z,60.31
2019-02-18T21:32:47.627Z,60.26
2019-02-18T21:35:17.908Z,60.53
2019-02-18T21:37:48.479Z,60.24
2019-02-18T21:40:18.926Z,60.06
2019-02-18T21:42:49.241Z,59.90
2019-02-18T21:45:19.494Z,60.09
2019-02-18T21:47:49.847Z,60.39
2019-02-18T21:50:20.582Z,60.62
2019-02-18T21:52:50.862Z,60.95
2019-02-18T21:55:21.245Z,61.14
2019-02-18T21:57:51.675Z,61.58
2019-02-18T22:00:23.375Z,62.01
2019-02-18T22:02:53.654Z,62.10
2019-02-18T22:05:23.954Z,62.08
2019-02-18T22:07:54.293Z,62.02
2019-02-18T22:10:24.529Z,62.32
2019-02-18T22:12:54.825Z,62.92
2019-02-18T22:15:25.160Z,63.66
2019-02-18T22:17:56.130Z,62.71
2019-02-18T22:20:26.797Z,62.84
2019-02-18T22:22:57.121Z,63.04
2019-02-18T22:25:27.377Z,63.17
2019-02-18T22:27:57.611Z,64.13
2019-02-18T22:30:28.211Z,66.23
2019-02-18T22:32:58.851Z,67.39
2019-02-18T22:35:29.213Z,67.63
2019-02-18T22:38:00.497Z,69.82
2019-02-18T22:40:30.794Z,70.57
2019-02-18T22:43:01.159Z,68.10
2019-02-18T22:45:31.424Z,64.21
2019-02-18T22:48:01.979Z,63.23
2019-02-18T22:50:32.379Z,63.46
2019-02-18T22:53:02.672Z,63.50
2019-02-18T22:55:33.278Z,63.92
2019-02-18T22:58:03.558Z,63.54
2019-02-18T23:00:52.095Z,64.64
2019-02-18T23:03:23.116Z,65.17
2019-02-18T23:05:53.579Z,64.92
2019-02-18T23:08:23.874Z,65.14
2019-02-18T23:10:54.266Z,64.86
2019-02-18T23:13:24.829Z,64.64
2019-02-18T23:15:56.777Z,64.75
2019-02-18T23:18:28.371Z,64.54
2019-02-18T23:20:58.932Z,64.82
2019-02-18T23:23:29.609Z,64.92
2019-02-18T23:26:00.379Z,64.82
2019-02-18T23:28:30.709Z,65.58
2019-02-18T23:31:01.008Z,66.20
2019-02-18T23:33:31.429Z,65.94
2019-02-18T23:36:01.688Z,67.96
2019-02-18T23:38:32.023Z,69.71
2019-02-18T23:41:02.840Z,71.63
2019-02-18T23:43:33.721Z,69.49
2019-02-18T23:46:05.577Z,67.60
2019-02-18T23:48:35.978Z,67.60
2019-02-18T23:51:06.266Z,67.24
2019-02-18T23:53:36.534Z,69.43
2019-02-18T23:56:07.086Z,70.07
2019-02-18T23:58:39.653Z,69.55
